createdAt,value
2022-08-21T01:23:17.698Z,24.00
2022-08-21T01:25:47.292Z,24.30
2022-08-21T01:28:18.234Z,24.30
2022-08-21T01:30:48.000Z,24.30
2022-08-21T01:33:17.550Z,24.40
2022-08-21T01:35:47.418Z,24.40
2022-08-21T01:38:17.122Z,24.50
2022-08-21T01:40:46.798Z,24.50
2022-08-21T01:43:16.481Z,24.60
2022-08-21T01:45:53.821Z,24.60
2022-08-21T01:48:23.381Z,24.70
2022-08-21T01:50:53.107Z,24.70
2022-08-21T01:53:27.853Z,24.80
2022-08-21T01:56:03.794Z,24.90
2022-08-21T01:58:33.526Z,24.90
2022-08-21T02:01:04.585Z,24.90
2022-08-21T02:03:35.614Z,25.00
2022-08-21T02:06:07.843Z,25.10
2022-08-21T02:08:37.800Z,25.10
2022-08-21T02:11:07.646Z,25.20
2022-08-21T02:13:37.259Z,25.20
2022-08-21T02:16:07.293Z,25.20
2022-08-21T02:18:37.500Z,25.30
2022-08-21T02:21:09.209Z,25.30
2022-08-21T02:23:39.549Z,25.40
2022-08-21T02:26:11.100Z,25.40
2022-08-21T02:28:41.403Z,25.50
2022-08-21T02:31:11.420Z,25.50
2022-08-21T02:33:41.962Z,25.50
2022-08-21T02:36:13.084Z,25.60
2022-08-21T02:38:45.608Z,25.60
2022-08-21T02:41:19.207Z,25.70
2022-08-21T02:43:49.339Z,25.80
2022-08-21T02:46:21.186Z,25.80
2022-08-21T02:48:51.011Z,25.80
2022-08-21T02:51:22.729Z,25.90
2022-08-21T02:53:53.254Z,25.90
2022-08-21T02:56:24.732Z,26.00
2022-08-21T02:58:59.412Z,26.00
2022-08-21T03:01:29.396Z,26.00
2022-08-21T03:03:59.057Z,26.10
2022-08-21T03:06:28.741Z,26.20
2022-08-21T03:08:59.268Z,26.20
2022-08-21T03:11:29.185Z,26.30
2022-08-21T03:13:58.811Z,26.30
2022-08-21T03:16:31.982Z,26.30
2022-08-21T03:19:05.450Z,26.40
2022-08-21T03:21:35.801Z,26.40
2022-08-21T03:24:07.235Z,26.40
2022-08-21T03:26:37.212Z,26.40
2022-08-21T03:29:10.246Z,26.40
2022-08-21T03:31:39.898Z,26.40
2022-08-21T03:34:09.510Z,26.40
2022-08-21T03:36:39.133Z,26.50
2022-08-21T03:39:08.763Z,26.50
2022-08-21T03:41:38.363Z,26.60
2022-08-21T03:44:07.949Z,26.60
2022-08-21T03:46:37.595Z,26.60
2022-08-21T03:49:07.299Z,26.60
2022-08-21T03:51:38.200Z,26.70
2022-08-21T03:54:07.853Z,26.60
2022-08-21T03:56:37.484Z,26.60
2022-08-21T03:59:07.097Z,26.70
2022-08-21T04:01:37.282Z,26.60
2022-08-21T04:04:08.348Z,26.70
2022-08-21T04:06:38.170Z,26.70
2022-08-21T04:09:07.666Z,26.70
2022-08-21T04:11:37.663Z,26.70
2022-08-21T04:14:07.265Z,26.70
2022-08-21T04:16:36.880Z,26.70
2022-08-21T04:19:06.590Z,26.70
2022-08-21T04:21:40.386Z,26.70
2022-08-21T04:24:12.332Z,26.70
2022-08-21T04:26:42.269Z,26.80
2022-08-21T04:29:11.862Z,26.80
2022-08-21T04:31:41.412Z,26.80
2022-08-21T04:34:11.301Z,26.80
2022-08-21T04:36:40.963Z,26.80
2022-08-21T04:39:10.519Z,26.90
2022-08-21T04:41:40.576Z,26.80
2022-08-21T04:44:11.085Z,26.90
2022-08-21T04:46:40.591Z,26.80
2022-08-21T04:49:10.267Z,26.90
2022-08-21T04:51:42.158Z,27.00
2022-08-21T04:54:17.536Z,27.00
2022-08-21T04:56:53.944Z,27.10
2022-08-21T04:59:36.106Z,27.10
2022-08-21T05:02:06.440Z,27.20
2022-08-21T05:04:39.590Z,27.20
2022-08-21T05:07:14.685Z,27.30
2022-08-21T05:09:44.953Z,27.40
2022-08-21T05:12:15.300Z,27.40
2022-08-21T05:14:44.976Z,27.50
2022-08-21T05:17:14.563Z,27.60
2022-08-21T05:19:44.240Z,27.60
2022-08-21T05:22:14.579Z,27.60
2022-08-21T05:24:44.142Z,27.70
2022-08-21T05:27:13.682Z,27.70
2022-08-21T05:29:47.369Z,27.70
2022-08-21T05:32:17.302Z,27.80
2022-08-21T05:34:46.846Z,27.80
2022-08-21T05:37:16.460Z,27.80
2022-08-21T05:40:20.277Z,27.80
2022-08-21T05:42:35.644Z,27.90
2022-08-21T05:45:05.302Z,27.90
2022-08-21T05:47:34.854Z,27.90
2022-08-21T05:50:05.270Z,27.90
2022-08-21T05:52:34.871Z,27.90
2022-08-21T05:55:05.484Z,28.00
2022-08-21T05:57:35.089Z,28.00
2022-08-21T06:00:05.086Z,28.00
2022-08-21T06:02:34.642Z,28.00
2022-08-21T06:05:04.427Z,28.10
2022-08-21T06:07:34.731Z,28.10
2022-08-21T06:10:05.387Z,28.20
2022-08-21T06:12:35.007Z,28.30
2022-08-21T06:15:05.070Z,28.30
2022-08-21T06:17:34.910Z,28.30
2022-08-21T06:20:05.652Z,28.30
2022-08-21T06:22:36.764Z,28.30
2022-08-21T06:25:06.619Z,28.30
2022-08-21T06:27:36.148Z,28.30
2022-08-21T06:30:08.087Z,28.20
2022-08-21T06:32:38.792Z,28.20
2022-08-21T06:35:09.230Z,28.20
2022-08-21T06:37:39.150Z,28.20
2022-08-21T06:40:12.880Z,28.20
2022-08-21T06:42:43.216Z,28.10
2022-08-21T06:45:13.879Z,28.00
2022-08-21T06:47:43.478Z,28.00
2022-08-21T06:50:13.076Z,27.80
2022-08-21T06:52:43.018Z,27.70
2022-08-21T06:55:13.769Z,27.70
2022-08-21T06:57:52.624Z,27.60
2022-08-21T07:00:23.057Z,27.60
2022-08-21T07:02:52.666Z,27.60
2022-08-21T07:05:22.426Z,27.70
2022-08-21T07:07:52.126Z,27.80
2022-08-21T07:10:22.920Z,28.00
2022-08-21T07:13:00.673Z,28.10
2022-08-21T07:15:32.711Z,28.20
2022-08-21T07:18:03.041Z,28.30
2022-08-21T07:20:33.756Z,28.40
2022-08-21T07:23:09.322Z,28.40
2022-08-21T07:25:39.308Z,28.50
2022-08-21T07:28:09.002Z,28.60
2022-08-21T07:30:38.754Z,28.70
2022-08-21T07:33:08.355Z,28.80
2022-08-21T07:35:38.023Z,28.90
2022-08-21T07:38:07.930Z,28.90
2022-08-21T07:40:37.495Z,28.90
2022-08-21T07:43:07.270Z,28.90
2022-08-21T07:45:36.889Z,28.90
2022-08-21T07:48:07.139Z,28.90
2022-08-21T07:50:36.713Z,28.90
2022-08-21T07:53:06.870Z,28.90
2022-08-21T07:55:37.022Z,28.80
2022-08-21T07:58:06.680Z,28.80
2022-08-21T08:00:37.268Z,28.80
2022-08-21T08:03:06.880Z,28.80
2022-08-21T08:05:39.712Z,28.80
2022-08-21T08:08:09.365Z,28.80
2022-08-21T08:10:40.203Z,28.70
2022-08-21T08:13:10.520Z,28.80
2022-08-21T08:15:40.435Z,28.70
2022-08-21T08:18:12.348Z,28.70
2022-08-21T08:20:41.945Z,28.70
2022-08-21T08:23:17.287Z,28.70
2022-08-21T08:25:46.960Z,28.70
2022-08-21T08:28:17.639Z,28.70
2022-08-21T08:30:49.163Z,28.70
2022-08-21T08:33:19.641Z,28.70
2022-08-21T08:35:51.999Z,28.60
2022-08-21T08:38:24.618Z,28.60
2022-08-21T08:41:09.041Z,28.60
2022-08-21T08:43:39.039Z,28.60
2022-08-21T08:46:17.455Z,28.60
2022-08-21T08:49:02.234Z,28.60
2022-08-21T08:51:58.291Z,28.70
2022-08-21T08:54:52.968Z,28.70
2022-08-21T09:59:00.678Z,28.70
2022-08-21T10:01:30.326Z,28.60
2022-08-21T10:04:11.950Z,28.60
2022-08-21T10:06:41.958Z,28.60
2022-08-21T10:09:21.493Z,28.60
2022-08-21T10:12:25.776Z,28.60
2022-08-21T10:15:22.480Z,28.60
2022-08-21T10:18:31.167Z,28.60
2022-08-21T10:21:34.063Z,28.60
2022-08-21T10:24:32.197Z,28.60
2022-08-21T10:27:41.044Z,28.50
2022-08-21T10:30:49.412Z,28.50
2022-08-21T10:33:49.591Z,28.50
2022-08-21T10:36:44.677Z,28.50
2022-08-21T10:39:44.439Z,28.50
2022-08-21T10:42:40.615Z,28.40
2022-08-21T10:45:32.962Z,28.40
2022-08-21T10:48:10.508Z,28.40
2022-08-21T10:50:53.367Z,28.40
2022-08-21T10:53:52.800Z,28.30
2022-08-21T10:56:32.672Z,28.30
2022-08-21T10:59:29.663Z,28.30
2022-08-21T11:02:32.793Z,28.30
2022-08-21T11:05:20.350Z,28.20
2022-08-21T11:08:07.546Z,28.20
2022-08-21T11:10:59.464Z,28.10
2022-08-21T11:13:46.673Z,28.00
2022-08-21T11:16:46.911Z,28.00
2022-08-21T11:19:26.409Z,28.00
2022-08-21T11:22:18.721Z,27.90
2022-08-21T11:25:05.784Z,27.90
2022-08-21T11:27:55.591Z,27.80
2022-08-21T11:30:31.884Z,27.80
2022-08-21T11:33:15.932Z,27.70
2022-08-21T11:36:14.323Z,27.70
2022-08-21T11:38:50.098Z,27.70
2022-08-21T11:41:44.315Z,27.70
2022-08-21T11:44:31.706Z,27.60
2022-08-21T11:47:28.079Z,27.60
2022-08-21T11:50:35.499Z,27.50
2022-08-21T11:53:31.768Z,27.50
2022-08-21T11:56:21.499Z,27.50
2022-08-21T11:59:00.473Z,27.50
2022-08-21T12:01:39.839Z,27.40
2022-08-21T12:04:26.179Z,27.40
2022-08-21T12:06:56.429Z,27.40
2022-08-21T12:09:39.411Z,27.30
2022-08-21T12:12:15.701Z,27.30
2022-08-21T12:14:50.426Z,27.20
2022-08-21T12:17:26.324Z,27.20
2022-08-21T12:20:18.686Z,27.20
2022-08-21T12:23:09.811Z,27.20
2022-08-21T12:26:05.403Z,27.10
2022-08-21T12:28:35.421Z,27.10
2022-08-21T12:31:05.035Z,27.10
2022-08-21T12:33:43.564Z,27.00
2022-08-21T12:36:24.036Z,27.00
2022-08-21T12:39:13.691Z,27.00
2022-08-21T12:42:22.391Z,27.00
2022-08-21T12:45:05.143Z,26.90
2022-08-21T12:47:46.791Z,26.90
2022-08-21T12:50:42.182Z,26.90
2022-08-21T12:53:38.862Z,26.90
2022-08-21T12:56:13.642Z,26.90
2022-08-21T12:58:52.021Z,26.90
2022-08-21T13:01:42.148Z,26.90
2022-08-21T13:04:20.268Z,26.90
2022-08-21T13:06:58.781Z,26.80
2022-08-21T13:09:32.906Z,26.80
2022-08-21T13:12:03.441Z,26.80
2022-08-21T13:14:45.334Z,26.80
2022-08-21T13:17:23.568Z,26.70
2022-08-21T13:20:06.571Z,26.70
2022-08-21T13:22:43.524Z,26.70
2022-08-21T13:25:15.472Z,26.70
2022-08-21T13:27:46.402Z,26.70
2022-08-21T13:30:23.293Z,26.70
2022-08-21T13:33:01.268Z,26.70
2022-08-21T13:35:57.982Z,26.70
2022-08-21T13:38:31.085Z,26.70
2022-08-21T13:41:31.095Z,26.70
2022-08-21T13:44:04.805Z,26.70
2022-08-21T13:46:39.623Z,26.70
2022-08-21T13:49:10.569Z,26.70
2022-08-21T13:51:40.344Z,26.70
2022-08-21T13:54:39.817Z,26.70
2022-08-21T13:57:21.464Z,26.70
2022-08-21T13:59:51.053Z,26.60
2022-08-21T14:02:26.523Z,26.60
2022-08-21T14:05:05.563Z,26.60
2022-08-21T14:07:39.222Z,26.60
2022-08-21T14:10:22.121Z,26.60
2022-08-21T14:12:57.169Z,26.50
2022-08-21T14:15:31.572Z,26.50
2022-08-21T14:18:22.461Z,26.50
2022-08-21T14:20:52.204Z,26.50
2022-08-21T14:23:29.992Z,26.50
2022-08-21T14:26:04.543Z,26.40
2022-08-21T14:28:38.232Z,26.40
2022-08-21T14:31:33.605Z,26.40
2022-08-21T14:34:03.542Z,26.40
2022-08-21T14:36:49.501Z,26.40
2022-08-21T14:39:19.853Z,26.40
2022-08-21T14:41:50.903Z,26.40
2022-08-21T14:44:21.771Z,26.40
2022-08-21T14:46:56.358Z,26.40
2022-08-21T14:49:30.171Z,26.40
2022-08-21T14:52:01.831Z,26.50
2022-08-21T14:54:33.550Z,26.40
2022-08-21T14:57:08.115Z,26.40
2022-08-21T14:59:39.093Z,26.40
2022-08-21T15:02:10.761Z,26.40
2022-08-21T15:04:41.166Z,26.30
2022-08-21T15:07:11.198Z,26.40
2022-08-21T15:09:43.046Z,26.30
2022-08-21T15:12:13.385Z,26.40
2022-08-21T15:14:44.975Z,26.30
2022-08-21T15:17:14.905Z,26.30
2022-08-21T15:19:44.527Z,26.30
2022-08-21T15:22:18.689Z,26.30
2022-08-21T15:24:48.938Z,26.30
2022-08-21T15:27:21.495Z,26.30
2022-08-21T15:29:51.146Z,26.30
2022-08-21T15:32:28.787Z,26.30
2022-08-21T15:35:01.260Z,26.30
2022-08-21T15:37:30.838Z,26.30
2022-08-21T15:40:00.483Z,26.30
2022-08-21T15:42:30.830Z,26.30
2022-08-21T15:45:00.996Z,26.30
2022-08-21T15:47:37.347Z,26.30
2022-08-21T15:50:10.338Z,26.20
2022-08-21T15:52:40.175Z,26.20
2022-08-21T15:55:10.357Z,26.20
2022-08-21T15:57:45.146Z,26.20
2022-08-21T16:00:28.311Z,26.20
2022-08-21T16:03:01.365Z,26.10
2022-08-21T16:05:31.427Z,26.20
2022-08-21T16:08:02.013Z,26.20
2022-08-21T16:10:32.279Z,26.10
2022-08-21T16:13:05.925Z,26.10
2022-08-21T16:15:36.148Z,26.10
2022-08-21T16:18:07.035Z,26.10
2022-08-21T16:20:36.836Z,26.10
2022-08-21T16:23:06.453Z,26.10
2022-08-21T16:25:40.459Z,26.00
2022-08-21T16:28:13.700Z,26.00
2022-08-21T16:30:44.243Z,26.00
2022-08-21T16:33:32.792Z,26.00
2022-08-21T16:36:02.617Z,26.10
2022-08-21T16:38:34.198Z,26.10
2022-08-21T16:41:09.753Z,26.10
2022-08-21T16:43:42.557Z,26.10
2022-08-21T16:46:15.032Z,26.10
2022-08-21T16:48:46.868Z,26.10
2022-08-21T16:51:18.785Z,26.10
2022-08-21T16:53:48.409Z,26.10
2022-08-21T16:56:19.031Z,26.10
2022-08-21T16:58:51.345Z,26.10
2022-08-21T17:01:24.513Z,26.10
2022-08-21T17:03:56.130Z,26.10
2022-08-21T17:06:28.917Z,26.10
2022-08-21T17:09:00.512Z,26.10
2022-08-21T17:11:43.659Z,26.10
2022-08-21T17:14:25.297Z,26.10
2022-08-21T17:16:58.491Z,26.10
2022-08-21T17:19:28.076Z,26.10
2022-08-21T17:21:57.666Z,26.10
2022-08-21T17:24:27.286Z,26.10
2022-08-21T17:26:58.327Z,26.00
2022-08-21T17:29:33.569Z,26.00
2022-08-21T17:32:03.402Z,26.00
2022-08-21T17:34:33.178Z,26.00
2022-08-21T17:37:03.204Z,26.00
2022-08-21T17:39:32.919Z,25.90
2022-08-21T17:42:06.953Z,25.90
2022-08-21T17:44:39.909Z,25.90
2022-08-21T17:47:10.495Z,25.80
2022-08-21T17:49:40.249Z,25.80
2022-08-21T17:52:10.463Z,25.80
2022-08-21T17:54:42.605Z,25.70
2022-08-21T17:57:22.852Z,25.70
2022-08-21T17:59:57.681Z,25.70
2022-08-21T18:02:28.577Z,25.70
2022-08-21T18:04:58.213Z,25.70
2022-08-21T18:07:32.784Z,25.70
2022-08-21T18:10:04.633Z,25.70
2022-08-21T18:12:35.265Z,25.60
2022-08-21T18:15:05.946Z,25.60
2022-08-21T18:17:36.944Z,25.60
2022-08-21T18:20:09.005Z,25.60
2022-08-21T18:22:38.665Z,25.60
2022-08-21T18:25:08.656Z,25.60
2022-08-21T18:27:38.627Z,25.60
2022-08-21T18:30:09.574Z,25.60
2022-08-21T18:32:39.266Z,25.60
2022-08-21T18:35:11.312Z,25.60
2022-08-21T18:37:41.453Z,25.60
2022-08-21T18:40:12.241Z,25.60
2022-08-21T18:42:58.592Z,25.60
2022-08-21T18:45:28.444Z,25.60
2022-08-21T18:48:00.126Z,25.50
2022-08-21T18:50:31.425Z,25.50
2022-08-21T18:53:01.284Z,25.50
2022-08-21T18:55:30.870Z,25.50
2022-08-21T18:58:01.315Z,25.40
2022-08-21T19:00:35.657Z,25.40
2022-08-21T19:03:08.055Z,25.40
2022-08-21T19:05:37.879Z,25.40
2022-08-21T19:08:10.548Z,25.40
2022-08-21T19:10:45.711Z,25.40
2022-08-21T19:13:19.807Z,25.40
2022-08-21T19:15:54.337Z,25.40
2022-08-21T19:18:28.282Z,25.30
2022-08-21T19:20:58.918Z,25.30
2022-08-21T19:23:30.497Z,25.30
2022-08-21T19:26:03.337Z,25.40
2022-08-21T19:28:39.264Z,25.30
2022-08-21T19:31:23.906Z,25.30
2022-08-21T19:34:01.603Z,25.30
2022-08-21T19:36:32.240Z,25.30
2022-08-21T19:39:08.113Z,25.30
2022-08-21T19:41:43.522Z,25.30
2022-08-21T19:44:17.758Z,25.30
2022-08-21T19:46:50.274Z,25.30
2022-08-21T19:49:24.007Z,25.30
2022-08-21T19:51:53.667Z,25.30
2022-08-21T19:54:29.186Z,25.30
2022-08-21T19:57:03.704Z,25.20
2022-08-21T19:59:35.512Z,25.20
2022-08-21T20:02:07.298Z,25.20
2022-08-21T20:04:37.074Z,25.20
2022-08-21T20:07:08.177Z,25.20
2022-08-21T20:09:39.034Z,25.20
2022-08-21T20:12:11.526Z,25.10
2022-08-21T20:14:48.997Z,25.10
2022-08-21T20:17:20.697Z,25.10
2022-08-21T20:19:54.947Z,25.10
2022-08-21T20:22:26.310Z,25.10
2022-08-21T20:24:56.178Z,25.10
2022-08-21T20:27:27.987Z,25.10
2022-08-21T20:29:57.786Z,25.10
2022-08-21T20:32:28.575Z,25.10
2022-08-21T20:34:59.034Z,25.10
2022-08-21T20:37:36.733Z,25.10
2022-08-21T20:40:14.178Z,25.10
2022-08-21T20:42:48.965Z,25.10
2022-08-21T20:45:32.759Z,25.10
2022-08-21T20:48:26.193Z,25.10
2022-08-21T20:51:04.568Z,25.10
2022-08-21T20:54:04.860Z,25.10
2022-08-21T20:57:14.203Z,25.10
2022-08-21T21:00:06.669Z,25.10
2022-08-21T21:03:00.852Z,25.00
2022-08-21T21:05:42.687Z,25.10
2022-08-21T21:08:39.842Z,25.00
2022-08-21T21:11:17.755Z,25.00
2022-08-21T21:14:13.857Z,25.00
2022-08-21T21:16:52.754Z,25.00
2022-08-21T21:19:48.557Z,25.00
2022-08-21T21:22:40.609Z,24.90
2022-08-21T21:25:23.428Z,24.90
2022-08-21T21:28:21.596Z,24.90
2022-08-21T21:30:51.996Z,24.90
2022-08-21T21:33:28.621Z,24.90
2022-08-21T21:36:25.075Z,24.90
2022-08-21T21:39:08.385Z,24.90
2022-08-21T21:42:08.527Z,24.90
2022-08-21T21:45:18.007Z,24.90
2022-08-21T21:48:26.927Z,24.90
2022-08-21T21:51:11.777Z,24.90
2022-08-21T21:53:58.008Z,24.90
2022-08-21T21:57:05.051Z,24.90
2022-08-21T21:59:55.868Z,24.90
2022-08-21T22:02:56.301Z,24.90
2022-08-21T22:05:58.475Z,24.90
2022-08-21T22:11:55.511Z,24.90
2022-08-21T22:14:40.174Z,24.90
2022-08-21T22:17:48.896Z,24.90
2022-08-21T22:20:34.251Z,24.90
2022-08-21T22:26:07.494Z,24.90
2022-08-21T22:28:43.264Z,24.90
2022-08-21T22:31:28.523Z,24.90
2022-08-21T22:34:20.544Z,24.80
2022-08-21T22:37:04.414Z,24.90
2022-08-21T22:39:40.604Z,24.90
2022-08-21T22:42:15.268Z,24.90
2022-08-21T22:44:55.409Z,24.80
2022-08-21T22:47:32.499Z,24.80
2022-08-21T22:50:05.315Z,24.90
2022-08-21T22:52:38.176Z,24.90
2022-08-21T22:55:37.192Z,24.90
2022-08-21T22:58:20.868Z,24.90
2022-08-21T23:00:56.743Z,24.90
2022-08-21T23:03:47.982Z,24.90
2022-08-21T23:06:44.648Z,24.80
2022-08-21T23:09:24.088Z,24.80
2022-08-21T23:11:54.023Z,24.80
2022-08-21T23:14:27.592Z,24.90
2022-08-21T23:17:23.433Z,24.80
2022-08-21T23:20:20.337Z,24.90
2022-08-21T23:23:24.356Z,24.80
2022-08-21T23:26:22.754Z,24.80
2022-08-21T23:29:25.947Z,24.90
2022-08-21T23:32:25.636Z,24.90
2022-08-21T23:35:17.946Z,24.80
2022-08-21T23:38:11.871Z,24.90
2022-08-21T23:40:50.801Z,24.80
2022-08-21T23:43:48.031Z,24.80
2022-08-21T23:46:47.054Z,24.80
2022-08-21T23:49:45.717Z,24.90
2022-08-21T23:52:54.539Z,24.90
2022-08-21T23:55:55.552Z,24.90
2022-08-21T23:59:04.355Z,24.90
